sensor_id;sensor_type;location;lat;lon;timestamp;pressure;altitude;pressure_sealevel;temperature;humidity
55733;BME280;41637;52.364;9.910;2023-07-13T00:01:47;100626.23;;;17.95;72.55
55733;BME280;41637;52.364;9.910;2023-07-13T00:04:17;100628.75;;;17.92;72.82
55733;BME280;41637;52.364;9.910;2023-07-13T00:06:45;100636.34;;;17.89;73.11
55733;BME280;41637;52.364;9.910;2023-07-13T00:09:12;100631.14;;;17.84;73.37
55733;BME280;41637;52.364;9.910;2023-07-13T00:11:40;100631.77;;;17.81;73.59
55733;BME280;41637;52.364;9.910;2023-07-13T00:14:08;100634.29;;;17.78;73.78
55733;BME280;41637;52.364;9.910;2023-07-13T00:16:36;100637.05;;;17.75;73.95
55733;BME280;41637;52.364;9.910;2023-07-13T00:19:04;100636.48;;;17.73;74.11
55733;BME280;41637;52.364;9.910;2023-07-13T00:21:31;100641.35;;;17.70;74.33
55733;BME280;41637;52.364;9.910;2023-07-13T00:23:58;100635.02;;;17.67;74.69
55733;BME280;41637;52.364;9.910;2023-07-13T00:26:27;100637.90;;;17.65;74.96
55733;BME280;41637;52.364;9.910;2023-07-13T00:28:54;100638.16;;;17.63;75.19
55733;BME280;41637;52.364;9.910;2023-07-13T00:31:20;100641.88;;;17.63;75.07
55733;BME280;41637;52.364;9.910;2023-07-13T00:33:47;100642.86;;;17.63;75.37
55733;BME280;41637;52.364;9.910;2023-07-13T00:36:15;100641.77;;;17.64;75.99
55733;BME280;41637;52.364;9.910;2023-07-13T00:38:42;100644.28;;;17.64;75.88
55733;BME280;41637;52.364;9.910;2023-07-13T00:41:09;100642.20;;;17.63;75.98
55733;BME280;41637;52.364;9.910;2023-07-13T00:43:36;100642.03;;;17.63;75.94
55733;BME280;41637;52.364;9.910;2023-07-13T00:46:30;100636.77;;;17.63;76.18
55733;BME280;41637;52.364;9.910;2023-07-13T00:49:02;100638.79;;;17.63;76.32
55733;BME280;41637;52.364;9.910;2023-07-13T00:51:48;100638.05;;;17.64;76.33
55733;BME280;41637;52.364;9.910;2023-07-13T00:54:21;100632.06;;;17.63;76.33
55733;BME280;41637;52.364;9.910;2023-07-13T00:56:51;100631.33;;;17.62;76.27
55733;BME280;41637;52.364;9.910;2023-07-13T00:59:20;100627.19;;;17.60;76.04
55733;BME280;41637;52.364;9.910;2023-07-13T01:01:48;100628.50;;;17.57;76.13
55733;BME280;41637;52.364;9.910;2023-07-13T01:04:16;100622.76;;;17.53;76.00
55733;BME280;41637;52.364;9.910;2023-07-13T01:06:43;100627.54;;;17.49;76.15
55733;BME280;41637;52.364;9.910;2023-07-13T01:09:12;100627.71;;;17.44;76.42
55733;BME280;41637;52.364;9.910;2023-07-13T01:11:40;100622.84;;;17.40;76.63
55733;BME280;41637;52.364;9.910;2023-07-13T01:14:10;100617.45;;;17.35;76.56
55733;BME280;41637;52.364;9.910;2023-07-13T01:16:39;100618.80;;;17.31;76.69
55733;BME280;41637;52.364;9.910;2023-07-13T01:19:17;100623.69;;;17.25;76.93
55733;BME280;41637;52.364;9.910;2023-07-13T01:21:50;100620.35;;;17.20;77.23
55733;BME280;41637;52.364;9.910;2023-07-13T01:24:18;100625.55;;;17.15;77.86
55733;BME280;41637;52.364;9.910;2023-07-13T01:26:44;100625.39;;;17.09;78.12
55733;BME280;41637;52.364;9.910;2023-07-13T01:29:11;100621.48;;;17.04;78.38
55733;BME280;41637;52.364;9.910;2023-07-13T01:31:38;100624.76;;;16.99;78.57
55733;BME280;41637;52.364;9.910;2023-07-13T01:34:05;100623.79;;;16.95;78.77
55733;BME280;41637;52.364;9.910;2023-07-13T01:36:32;100623.14;;;16.89;78.99
55733;BME280;41637;52.364;9.910;2023-07-13T01:39:00;100622.60;;;16.84;79.40
55733;BME280;41637;52.364;9.910;2023-07-13T01:41:26;100624.17;;;16.79;79.59
55733;BME280;41637;52.364;9.910;2023-07-13T01:43:53;100635.05;;;16.73;80.19
55733;BME280;41637;52.364;9.910;2023-07-13T01:46:20;100638.77;;;16.65;80.62
55733;BME280;41637;52.364;9.910;2023-07-13T01:48:50;100640.17;;;16.59;80.91
55733;BME280;41637;52.364;9.910;2023-07-13T01:51:18;100640.13;;;16.53;81.27
55733;BME280;41637;52.364;9.910;2023-07-13T01:53:44;100639.67;;;16.48;81.49
55733;BME280;41637;52.364;9.910;2023-07-13T01:56:12;100639.38;;;16.42;82.06
55733;BME280;41637;52.364;9.910;2023-07-13T01:58:39;100639.49;;;16.36;82.92
55733;BME280;41637;52.364;9.910;2023-07-13T02:01:06;100639.48;;;16.31;83.28
55733;BME280;41637;52.364;9.910;2023-07-13T02:03:33;100639.66;;;16.27;83.27
55733;BME280;41637;52.364;9.910;2023-07-13T02:06:00;100643.21;;;16.23;83.39
55733;BME280;41637;52.364;9.910;2023-07-13T02:08:31;100645.86;;;16.20;83.78
55733;BME280;41637;52.364;9.910;2023-07-13T02:10:58;100647.34;;;16.17;83.80
55733;BME280;41637;52.364;9.910;2023-07-13T02:13:25;100651.91;;;16.15;84.17
55733;BME280;41637;52.364;9.910;2023-07-13T02:15:54;100655.91;;;16.12;84.35
55733;BME280;41637;52.364;9.910;2023-07-13T02:18:21;100658.44;;;16.10;84.43
55733;BME280;41637;52.364;9.910;2023-07-13T02:20:48;100655.19;;;16.09;84.49
55733;BME280;41637;52.364;9.910;2023-07-13T02:23:14;100658.27;;;16.09;84.60
55733;BME280;41637;52.364;9.910;2023-07-13T02:25:41;100659.05;;;16.08;84.60
55733;BME280;41637;52.364;9.910;2023-07-13T02:28:08;100660.48;;;16.08;84.61
55733;BME280;41637;52.364;9.910;2023-07-13T02:30:35;100657.81;;;16.08;84.45
55733;BME280;41637;52.364;9.910;2023-07-13T02:33:02;100658.45;;;16.07;84.18
55733;BME280;41637;52.364;9.910;2023-07-13T02:35:29;100660.91;;;16.06;84.12
55733;BME280;41637;52.364;9.910;2023-07-13T02:37:55;100660.54;;;16.08;83.94
55733;BME280;41637;52.364;9.910;2023-07-13T02:40:22;100665.10;;;16.10;83.74
55733;BME280;41637;52.364;9.910;2023-07-13T02:42:49;100657.58;;;16.10;83.47
55733;BME280;41637;52.364;9.910;2023-07-13T02:45:16;100659.30;;;16.09;83.25
55733;BME280;41637;52.364;9.910;2023-07-13T02:47:43;100656.55;;;16.08;83.28
55733;BME280;41637;52.364;9.910;2023-07-13T02:50:10;100660.99;;;16.07;83.32
55733;BME280;41637;52.364;9.910;2023-07-13T02:52:37;100657.05;;;16.05;83.19
55733;BME280;41637;52.364;9.910;2023-07-13T02:55:04;100659.34;;;16.02;83.39
55733;BME280;41637;52.364;9.910;2023-07-13T02:57:30;100660.04;;;16.01;83.40
55733;BME280;41637;52.364;9.910;2023-07-13T03:00:00;100662.92;;;16.00;83.41
55733;BME280;41637;52.364;9.910;2023-07-13T03:02:28;100664.98;;;15.98;83.44
55733;BME280;41637;52.364;9.910;2023-07-13T03:04:55;100668.36;;;15.97;83.31
55733;BME280;41637;52.364;9.910;2023-07-13T03:07:22;100668.44;;;15.96;83.38
55733;BME280;41637;52.364;9.910;2023-07-13T03:09:53;100669.30;;;15.95;83.29
55733;BME280;41637;52.364;9.910;2023-07-13T03:12:20;100668.04;;;15.93;83.33
55733;BME280;41637;52.364;9.910;2023-07-13T03:14:47;100667.88;;;15.91;83.37
55733;BME280;41637;52.364;9.910;2023-07-13T03:17:14;100668.05;;;15.89;83.31
55733;BME280;41637;52.364;9.910;2023-07-13T03:19:41;100663.38;;;15.87;83.22
55733;BME280;41637;52.364;9.910;2023-07-13T03:22:08;100664.29;;;15.86;83.20
55733;BME280;41637;52.364;9.910;2023-07-13T03:24:35;100662.19;;;15.84;83.23
55733;BME280;41637;52.364;9.910;2023-07-13T03:27:08;100655.12;;;15.82;82.87
55733;BME280;41637;52.364;9.910;2023-07-13T03:29:35;100655.27;;;15.82;82.73
55733;BME280;41637;52.364;9.910;2023-07-13T03:32:02;100656.23;;;15.82;82.57
55733;BME280;41637;52.364;9.910;2023-07-13T03:34:31;100658.48;;;15.81;82.47
55733;BME280;41637;52.364;9.910;2023-07-13T03:36:59;100660.31;;;15.79;82.45
55733;BME280;41637;52.364;9.910;2023-07-13T03:39:25;100669.81;;;15.77;82.25
55733;BME280;41637;52.364;9.910;2023-07-13T03:41:53;100667.43;;;15.75;82.45
55733;BME280;41637;52.364;9.910;2023-07-13T03:44:22;100671.98;;;15.73;82.40
55733;BME280;41637;52.364;9.910;2023-07-13T03:46:49;100670.71;;;15.71;82.59
55733;BME280;41637;52.364;9.910;2023-07-13T03:49:16;100668.15;;;15.72;82.33
55733;BME280;41637;52.364;9.910;2023-07-13T03:51:43;100664.70;;;15.74;82.33
55733;BME280;41637;52.364;9.910;2023-07-13T03:54:10;100663.27;;;15.76;82.26
55733;BME280;41637;52.364;9.910;2023-07-13T03:56:37;100669.48;;;15.79;82.10
55733;BME280;41637;52.364;9.910;2023-07-13T03:59:04;100670.80;;;15.82;82.00
55733;BME280;41637;52.364;9.910;2023-07-13T04:01:31;100674.13;;;15.87;81.87
55733;BME280;41637;52.364;9.910;2023-07-13T04:03:58;100674.60;;;15.92;81.72
55733;BME280;41637;52.364;9.910;2023-07-13T04:06:30;100675.23;;;15.97;81.56
55733;BME280;41637;52.364;9.910;2023-07-13T04:09:00;100672.63;;;16.03;81.34
55733;BME280;41637;52.364;9.910;2023-07-13T04:11:29;100673.39;;;16.09;81.18
55733;BME280;41637;52.364;9.910;2023-07-13T04:13:56;100675.59;;;16.15;80.94
55733;BME280;41637;52.364;9.910;2023-07-13T04:16:23;100680.33;;;16.22;80.77
55733;BME280;41637;52.364;9.910;2023-07-13T04:18:51;100683.46;;;16.29;80.45
55733;BME280;41637;52.364;9.910;2023-07-13T04:21:21;100682.44;;;16.39;80.23
55733;BME280;41637;52.364;9.910;2023-07-13T04:23:48;100681.66;;;16.51;79.65
55733;BME280;41637;52.364;9.910;2023-07-13T04:26:15;100685.14;;;16.65;79.37
55733;BME280;41637;52.364;9.910;2023-07-13T04:28:42;100679.83;;;16.79;78.91
55733;BME280;41637;52.364;9.910;2023-07-13T04:31:08;100680.52;;;16.90;78.20
55733;BME280;41637;52.364;9.910;2023-07-13T04:33:35;100677.76;;;17.01;77.91
55733;BME280;41637;52.364;9.910;2023-07-13T04:36:03;100679.98;;;17.09;77.21
55733;BME280;41637;52.364;9.910;2023-07-13T04:38:31;100680.70;;;17.14;76.66
55733;BME280;41637;52.364;9.910;2023-07-13T04:41:04;100677.29;;;17.18;76.55
55733;BME280;41637;52.364;9.910;2023-07-13T04:43:32;100680.25;;;17.19;76.12
55733;BME280;41637;52.364;9.910;2023-07-13T04:46:12;100677.02;;;17.18;76.11
55733;BME280;41637;52.364;9.910;2023-07-13T04:48:40;100678.04;;;17.17;76.19
55733;BME280;41637;52.364;9.910;2023-07-13T04:51:07;100681.35;;;17.17;76.20
55733;BME280;41637;52.364;9.910;2023-07-13T04:53:34;100680.99;;;17.19;76.14
55733;BME280;41637;52.364;9.910;2023-07-13T04:56:01;100678.89;;;17.20;76.00
55733;BME280;41637;52.364;9.910;2023-07-13T04:58:29;100682.70;;;17.21;75.78
55733;BME280;41637;52.364;9.910;2023-07-13T05:01:01;100682.89;;;17.24;75.47
55733;BME280;41637;52.364;9.910;2023-07-13T05:03:28;100684.51;;;17.27;75.18
55733;BME280;41637;52.364;9.910;2023-07-13T05:06:04;100687.05;;;17.33;74.95
55733;BME280;41637;52.364;9.910;2023-07-13T05:08:31;100693.27;;;17.40;74.60
55733;BME280;41637;52.364;9.910;2023-07-13T05:11:03;100693.56;;;17.48;74.34
55733;BME280;41637;52.364;9.910;2023-07-13T05:13:30;100698.20;;;17.56;73.90
55733;BME280;41637;52.364;9.910;2023-07-13T05:15:58;100696.47;;;17.64;73.57
55733;BME280;41637;52.364;9.910;2023-07-13T05:18:26;100700.48;;;17.72;73.07
55733;BME280;41637;52.364;9.910;2023-07-13T05:21:05;100708.00;;;17.79;72.54
55733;BME280;41637;52.364;9.910;2023-07-13T05:23:33;100703.48;;;17.88;71.83
55733;BME280;41637;52.364;9.910;2023-07-13T05:26:01;100706.85;;;17.96;71.53
55733;BME280;41637;52.364;9.910;2023-07-13T05:28:31;100710.52;;;18.04;71.01
55733;BME280;41637;52.364;9.910;2023-07-13T05:30:59;100719.25;;;18.11;70.51
55733;BME280;41637;52.364;9.910;2023-07-13T05:33:27;100715.95;;;18.16;70.46
55733;BME280;41637;52.364;9.910;2023-07-13T05:35:54;100720.36;;;18.23;69.99
55733;BME280;41637;52.364;9.910;2023-07-13T05:38:20;100716.88;;;18.29;69.53
55733;BME280;41637;52.364;9.910;2023-07-13T05:40:48;100720.41;;;18.34;69.21
55733;BME280;41637;52.364;9.910;2023-07-13T05:43:15;100722.73;;;18.39;68.89
55733;BME280;41637;52.364;9.910;2023-07-13T05:45:42;100721.25;;;18.44;68.81
55733;BME280;41637;52.364;9.910;2023-07-13T05:48:08;100722.27;;;18.47;68.46
55733;BME280;41637;52.364;9.910;2023-07-13T05:50:35;100726.34;;;18.50;68.42
55733;BME280;41637;52.364;9.910;2023-07-13T05:53:02;100732.02;;;18.52;67.93
55733;BME280;41637;52.364;9.910;2023-07-13T05:55:29;100730.89;;;18.52;67.95
55733;BME280;41637;52.364;9.910;2023-07-13T05:57:56;100734.19;;;18.55;67.64
55733;BME280;41637;52.364;9.910;2023-07-13T06:00:24;100734.90;;;18.61;67.79
55733;BME280;41637;52.364;9.910;2023-07-13T06:02:51;100744.00;;;18.68;67.26
55733;BME280;41637;52.364;9.910;2023-07-13T06:05:18;100746.66;;;18.69;66.75
55733;BME280;41637;52.364;9.910;2023-07-13T06:07:46;100742.92;;;18.64;66.47
55733;BME280;41637;52.364;9.910;2023-07-13T06:10:12;100748.94;;;18.60;66.62
55733;BME280;41637;52.364;9.910;2023-07-13T06:12:39;100746.27;;;18.58;67.11
55733;BME280;41637;52.364;9.910;2023-07-13T06:15:07;100744.90;;;18.62;67.39
55733;BME280;41637;52.364;9.910;2023-07-13T06:17:34;100743.31;;;18.69;67.43
55733;BME280;41637;52.364;9.910;2023-07-13T06:20:01;100752.48;;;18.73;66.92
55733;BME280;41637;52.364;9.910;2023-07-13T06:22:28;100753.60;;;18.78;66.33
55733;BME280;41637;52.364;9.910;2023-07-13T06:24:55;100749.59;;;18.81;66.19
55733;BME280;41637;52.364;9.910;2023-07-13T06:27:22;100749.30;;;18.90;66.21
55733;BME280;41637;52.364;9.910;2023-07-13T06:29:48;100749.76;;;19.02;66.00
55733;BME280;41637;52.364;9.910;2023-07-13T06:32:15;100746.45;;;19.14;65.24
55733;BME280;41637;52.364;9.910;2023-07-13T06:34:42;100745.63;;;19.33;65.31
55733;BME280;41637;52.364;9.910;2023-07-13T06:37:10;100746.54;;;19.53;64.83
55733;BME280;41637;52.364;9.910;2023-07-13T06:39:36;100744.47;;;19.71;64.24
55733;BME280;41637;52.364;9.910;2023-07-13T06:42:03;100747.16;;;19.85;63.73
55733;BME280;41637;52.364;9.910;2023-07-13T06:44:31;100752.24;;;19.96;62.70
55733;BME280;41637;52.364;9.910;2023-07-13T06:46:57;100756.48;;;20.03;62.22
55733;BME280;41637;52.364;9.910;2023-07-13T06:49:24;100753.95;;;20.08;61.91
55733;BME280;41637;52.364;9.910;2023-07-13T06:51:50;100753.19;;;20.20;62.02
55733;BME280;41637;52.364;9.910;2023-07-13T06:54:17;100756.33;;;20.26;61.28
55733;BME280;41637;52.364;9.910;2023-07-13T06:56:44;100755.92;;;20.35;61.42
55733;BME280;41637;52.364;9.910;2023-07-13T06:59:11;100754.99;;;20.43;61.44
55733;BME280;41637;52.364;9.910;2023-07-13T07:01:38;100753.02;;;20.46;61.14
55733;BME280;41637;52.364;9.910;2023-07-13T07:04:07;100756.70;;;20.51;61.38
55733;BME280;41637;52.364;9.910;2023-07-13T07:06:35;100756.15;;;20.55;60.86
55733;BME280;41637;52.364;9.910;2023-07-13T07:09:01;100757.56;;;20.50;59.58
55733;BME280;41637;52.364;9.910;2023-07-13T07:11:28;100755.08;;;20.39;59.69
55733;BME280;41637;52.364;9.910;2023-07-13T07:13:55;100757.95;;;20.34;60.45
55733;BME280;41637;52.364;9.910;2023-07-13T07:16:23;100755.39;;;20.30;60.93
55733;BME280;41637;52.364;9.910;2023-07-13T07:18:51;100758.05;;;20.29;60.42
55733;BME280;41637;52.364;9.910;2023-07-13T07:21:18;100760.55;;;20.35;60.88
55733;BME280;41637;52.364;9.910;2023-07-13T07:23:44;100766.33;;;20.41;60.43
55733;BME280;41637;52.364;9.910;2023-07-13T07:26:11;100762.02;;;20.38;60.00
55733;BME280;41637;52.364;9.910;2023-07-13T07:28:38;100771.84;;;20.34;60.13
55733;BME280;41637;52.364;9.910;2023-07-13T07:31:11;100776.73;;;20.25;59.14
55733;BME280;41637;52.364;9.910;2023-07-13T07:33:41;100776.29;;;20.17;58.10
55733;BME280;41637;52.364;9.910;2023-07-13T07:36:08;100772.92;;;20.08;57.97
55733;BME280;41637;52.364;9.910;2023-07-13T07:38:37;100775.52;;;20.07;58.33
55733;BME280;41637;52.364;9.910;2023-07-13T07:41:05;100773.35;;;20.03;57.66
55733;BME280;41637;52.364;9.910;2023-07-13T07:43:35;100771.38;;;20.09;58.23
55733;BME280;41637;52.364;9.910;2023-07-13T07:46:02;100772.89;;;20.14;58.31
55733;BME280;41637;52.364;9.910;2023-07-13T07:48:31;100768.14;;;20.19;58.38
55733;BME280;41637;52.364;9.910;2023-07-13T07:50:58;100771.11;;;20.29;58.55
55733;BME280;41637;52.364;9.910;2023-07-13T07:53:25;100768.80;;;20.40;58.25
55733;BME280;41637;52.364;9.910;2023-07-13T07:55:52;100763.67;;;20.43;57.59
55733;BME280;41637;52.364;9.910;2023-07-13T07:58:24;100768.13;;;20.42;57.53
55733;BME280;41637;52.364;9.910;2023-07-13T08:01:02;100770.91;;;20.31;57.34
55733;BME280;41637;52.364;9.910;2023-07-13T08:03:32;100771.96;;;20.19;57.80
55733;BME280;41637;52.364;9.910;2023-07-13T08:06:02;100771.58;;;20.13;57.87
55733;BME280;41637;52.364;9.910;2023-07-13T08:08:33;100774.88;;;20.07;57.80
55733;BME280;41637;52.364;9.910;2023-07-13T08:11:05;100771.73;;;20.01;57.95
55733;BME280;41637;52.364;9.910;2023-07-13T08:13:36;100777.09;;;20.02;58.28
55733;BME280;41637;52.364;9.910;2023-07-13T08:16:06;100775.37;;;20.10;58.10
55733;BME280;41637;52.364;9.910;2023-07-13T08:18:33;100778.28;;;20.20;57.81
55733;BME280;41637;52.364;9.910;2023-07-13T08:21:05;100778.89;;;20.30;57.44
55733;BME280;41637;52.364;9.910;2023-07-13T08:23:32;100775.48;;;20.46;56.89
55733;BME280;41637;52.364;9.910;2023-07-13T08:26:00;100773.77;;;20.61;56.83
55733;BME280;41637;52.364;9.910;2023-07-13T08:28:31;100774.29;;;20.89;56.76
55733;BME280;41637;52.364;9.910;2023-07-13T08:31:05;100781.69;;;21.07;55.34
55733;BME280;41637;52.364;9.910;2023-07-13T08:33:35;100781.47;;;21.07;55.00
55733;BME280;41637;52.364;9.910;2023-07-13T08:36:03;100779.23;;;21.11;55.25
55733;BME280;41637;52.364;9.910;2023-07-13T08:38:31;100781.64;;;21.13;54.77
55733;BME280;41637;52.364;9.910;2023-07-13T08:40:58;100781.61;;;21.18;55.03
55733;BME280;41637;52.364;9.910;2023-07-13T08:43:30;100786.23;;;21.26;55.13
55733;BME280;41637;52.364;9.910;2023-07-13T08:46:18;100778.36;;;21.27;54.70
55733;BME280;41637;52.364;9.910;2023-07-13T08:48:57;100786.10;;;21.28;54.45
55733;BME280;41637;52.364;9.910;2023-07-13T08:51:44;100780.27;;;21.25;54.57
55733;BME280;41637;52.364;9.910;2023-07-13T08:54:34;100776.40;;;21.29;54.87
55733;BME280;41637;52.364;9.910;2023-07-13T08:57:11;100778.92;;;21.38;54.90
55733;BME280;41637;52.364;9.910;2023-07-13T08:59:39;100784.80;;;21.35;54.66
55733;BME280;41637;52.364;9.910;2023-07-13T09:04:59;100779.23;;;21.46;55.40
55733;BME280;41637;52.364;9.910;2023-07-13T09:10:37;100776.91;;;21.45;54.74
55733;BME280;41637;52.364;9.910;2023-07-13T09:15:47;100785.17;;;21.37;55.04
55733;BME280;41637;52.364;9.910;2023-07-13T09:18:41;100785.48;;;21.37;55.18
55733;BME280;41637;52.364;9.910;2023-07-13T09:21:18;100795.86;;;21.40;55.68
55733;BME280;41637;52.364;9.910;2023-07-13T09:23:48;100800.42;;;21.26;55.80
55733;BME280;41637;52.364;9.910;2023-07-13T09:26:20;100798.22;;;21.11;56.04
55733;BME280;41637;52.364;9.910;2023-07-13T09:28:51;100798.23;;;21.06;56.09
55733;BME280;41637;52.364;9.910;2023-07-13T09:31:24;100796.55;;;21.09;55.53
55733;BME280;41637;52.364;9.910;2023-07-13T09:33:52;100791.86;;;21.37;55.76
55733;BME280;41637;52.364;9.910;2023-07-13T09:36:25;100796.66;;;21.72;54.89
55733;BME280;41637;52.364;9.910;2023-07-13T09:44:14;100794.11;;;22.31;52.73
55733;BME280;41637;52.364;9.910;2023-07-13T09:46:47;100790.56;;;22.28;52.45
55733;BME280;41637;52.364;9.910;2023-07-13T09:49:22;100783.35;;;22.38;53.02
55733;BME280;41637;52.364;9.910;2023-07-13T09:51:58;100785.95;;;22.53;52.41
55733;BME280;41637;52.364;9.910;2023-07-13T09:54:26;100789.98;;;22.74;51.08
55733;BME280;41637;52.364;9.910;2023-07-13T09:57:00;100788.73;;;22.85;50.48
55733;BME280;41637;52.364;9.910;2023-07-13T09:59:30;100789.23;;;22.99;50.75
55733;BME280;41637;52.364;9.910;2023-07-13T10:01:58;100785.33;;;23.14;50.50
55733;BME280;41637;52.364;9.910;2023-07-13T10:04:34;100789.06;;;23.27;50.32
55733;BME280;41637;52.364;9.910;2023-07-13T10:07:12;100787.99;;;23.47;49.05
55733;BME280;41637;52.364;9.910;2023-07-13T10:09:56;100801.94;;;23.44;48.09
55733;BME280;41637;52.364;9.910;2023-07-13T10:12:24;100792.80;;;23.45;47.82
55733;BME280;41637;52.364;9.910;2023-07-13T10:14:54;100796.60;;;23.35;48.48
55733;BME280;41637;52.364;9.910;2023-07-13T10:17:38;100796.66;;;23.40;49.05
55733;BME280;41637;52.364;9.910;2023-07-13T10:20:07;100798.05;;;23.47;49.80
55733;BME280;41637;52.364;9.910;2023-07-13T10:23:07;100792.23;;;23.56;49.42
55733;BME280;41637;52.364;9.910;2023-07-13T10:25:34;100784.33;;;23.51;49.15
55733;BME280;41637;52.364;9.910;2023-07-13T10:30:53;100795.52;;;23.11;48.26
55733;BME280;41637;52.364;9.910;2023-07-13T10:33:22;100796.43;;;22.76;48.39
55733;BME280;41637;52.364;9.910;2023-07-13T10:35:51;100801.24;;;22.51;49.36
55733;BME280;41637;52.364;9.910;2023-07-13T10:38:22;100798.75;;;22.38;50.46
55733;BME280;41637;52.364;9.910;2023-07-13T10:40:57;100804.59;;;22.43;50.63
55733;BME280;41637;52.364;9.910;2023-07-13T10:43:28;100800.30;;;22.63;49.71
55733;BME280;41637;52.364;9.910;2023-07-13T10:45:57;100794.60;;;22.87;47.89
55733;BME280;41637;52.364;9.910;2023-07-13T10:48:26;100786.70;;;23.10;47.49
55733;BME280;41637;52.364;9.910;2023-07-13T10:50:54;100790.63;;;23.26;46.50
55733;BME280;41637;52.364;9.910;2023-07-13T10:53:29;100797.39;;;23.39;46.54
55733;BME280;41637;52.364;9.910;2023-07-13T10:56:02;100790.30;;;23.43;44.97
55733;BME280;41637;52.364;9.910;2023-07-13T10:58:42;100792.52;;;23.59;44.46
55733;BME280;41637;52.364;9.910;2023-07-13T11:04:00;100785.61;;;23.91;43.80
55733;BME280;41637;52.364;9.910;2023-07-13T11:06:39;100785.99;;;24.10;43.25
55733;BME280;41637;52.364;9.910;2023-07-13T11:09:32;100787.42;;;24.24;43.94
55733;BME280;41637;52.364;9.910;2023-07-13T11:12:00;100790.42;;;24.39;43.41
55733;BME280;41637;52.364;9.910;2023-07-13T11:16:56;100799.27;;;24.30;41.99
55733;BME280;41637;52.364;9.910;2023-07-13T11:19:26;100794.41;;;24.24;42.21
55733;BME280;41637;52.364;9.910;2023-07-13T11:22:24;100793.70;;;24.36;42.77
55733;BME280;41637;52.364;9.910;2023-07-13T11:24:56;100791.80;;;24.54;41.98
55733;BME280;41637;52.364;9.910;2023-07-13T11:33:22;100790.23;;;24.70;42.37
55733;BME280;41637;52.364;9.910;2023-07-13T11:41:26;100782.48;;;25.08;40.72
55733;BME280;41637;52.364;9.910;2023-07-13T11:43:55;100784.61;;;25.12;40.41
55733;BME280;41637;52.364;9.910;2023-07-13T11:46:25;100793.23;;;25.09;40.24
55733;BME280;41637;52.364;9.910;2023-07-13T11:48:53;100791.44;;;25.01;39.59
55733;BME280;41637;52.364;9.910;2023-07-13T11:51:23;100791.76;;;24.99;40.60
55733;BME280;41637;52.364;9.910;2023-07-13T11:53:53;100787.14;;;24.95;40.20
55733;BME280;41637;52.364;9.910;2023-07-13T11:56:24;100794.33;;;25.06;40.58
55733;BME280;41637;52.364;9.910;2023-07-13T11:58:55;100787.83;;;25.17;40.01
55733;BME280;41637;52.364;9.910;2023-07-13T12:01:25;100786.34;;;25.36;38.36
55733;BME280;41637;52.364;9.910;2023-07-13T12:03:53;100781.48;;;25.48;37.87
55733;BME280;41637;52.364;9.910;2023-07-13T12:06:29;100773.91;;;25.47;37.70
55733;BME280;41637;52.364;9.910;2023-07-13T12:09:02;100772.52;;;25.46;38.54
55733;BME280;41637;52.364;9.910;2023-07-13T12:11:30;100771.02;;;25.39;38.62
55733;BME280;41637;52.364;9.910;2023-07-13T12:14:01;100779.23;;;25.38;38.23
55733;BME280;41637;52.364;9.910;2023-07-13T12:16:32;100777.65;;;25.38;37.99
55733;BME280;41637;52.364;9.910;2023-07-13T12:19:00;100780.41;;;25.33;36.76
55733;BME280;41637;52.364;9.910;2023-07-13T12:21:38;100777.16;;;25.46;36.58
55733;BME280;41637;52.364;9.910;2023-07-13T12:24:14;100775.71;;;25.69;37.19
55733;BME280;41637;52.364;9.910;2023-07-13T12:26:41;100774.87;;;25.93;37.50
55733;BME280;41637;52.364;9.910;2023-07-13T12:29:11;100780.91;;;25.96;36.86
55733;BME280;41637;52.364;9.910;2023-07-13T12:31:44;100778.59;;;25.72;37.36
55733;BME280;41637;52.364;9.910;2023-07-13T12:34:15;100775.15;;;25.47;38.04
55733;BME280;41637;52.364;9.910;2023-07-13T12:36:51;100780.62;;;25.26;38.15
55733;BME280;41637;52.364;9.910;2023-07-13T12:39:30;100788.44;;;24.92;38.43
55733;BME280;41637;52.364;9.910;2023-07-13T12:44:47;100788.35;;;24.37;40.82
55733;BME280;41637;52.364;9.910;2023-07-13T12:47:19;100787.40;;;24.33;40.90
55733;BME280;41637;52.364;9.910;2023-07-13T12:49:54;100783.43;;;24.42;41.21
55733;BME280;41637;52.364;9.910;2023-07-13T12:52:23;100788.63;;;24.62;40.97
55733;BME280;41637;52.364;9.910;2023-07-13T12:54:59;100789.13;;;25.15;40.11
55733;BME280;41637;52.364;9.910;2023-07-13T12:57:38;100783.27;;;25.80;39.77
55733;BME280;41637;52.364;9.910;2023-07-13T13:00:23;100781.77;;;26.41;38.92
55733;BME280;41637;52.364;9.910;2023-07-13T13:02:53;100779.11;;;26.67;37.76
55733;BME280;41637;52.364;9.910;2023-07-13T13:05:41;100789.80;;;26.52;37.85
55733;BME280;41637;52.364;9.910;2023-07-13T13:08:12;100802.01;;;26.13;37.64
55733;BME280;41637;52.364;9.910;2023-07-13T13:10:39;100798.76;;;25.61;38.55
55733;BME280;41637;52.364;9.910;2023-07-13T13:13:06;100803.48;;;25.22;39.41
55733;BME280;41637;52.364;9.910;2023-07-13T13:15:33;100800.35;;;24.81;39.61
55733;BME280;41637;52.364;9.910;2023-07-13T13:18:00;100797.80;;;24.49;40.37
55733;BME280;41637;52.364;9.910;2023-07-13T13:20:30;100814.39;;;24.25;41.10
55733;BME280;41637;52.364;9.910;2023-07-13T13:22:56;100824.77;;;23.96;41.83
55733;BME280;41637;52.364;9.910;2023-07-13T13:25:23;100840.86;;;23.68;44.14
55733;BME280;41637;52.364;9.910;2023-07-13T13:27:51;100846.17;;;23.22;47.33
55733;BME280;41637;52.364;9.910;2023-07-13T13:30:17;100853.00;;;22.75;49.30
55733;BME280;41637;52.364;9.910;2023-07-13T13:32:47;100861.15;;;22.41;50.01
55733;BME280;41637;52.364;9.910;2023-07-13T13:35:18;100874.98;;;22.21;51.22
55733;BME280;41637;52.364;9.910;2023-07-13T13:37:46;100868.09;;;22.10;51.18
55733;BME280;41637;52.364;9.910;2023-07-13T13:40:20;100870.48;;;22.01;51.12